Time;durP1;ratioP1;P1;durP2;ratioP2;P2;SDS_P1;SDS_P2;PMS_P1;PMS_P2;Temp;Humidity;BMP_temperature;BMP_pressure;BME280_temperature;BME280_humidity;BME280_pressure;Samples;Min_cycle;Max_cycle;Signal;HPM_P1;HPM_P2
2022/06/07 00:00:52;;;;;;;13.98;5.70;;;;;;;;;;5064909;28;20040;-82
2022/06/07 00:03:19;;;;;;;13.63;5.45;;;;;;;;;;5062972;28;20052;-83
2022/06/07 00:05:46;;;;;;;11.45;5.20;;;;;;;;;;5065570;28;20067;-84
2022/06/07 00:08:12;;;;;;;10.00;5.03;;;;;;;;;;5066419;28;20038;-83
2022/06/07 00:10:38;;;;;;;12.27;5.50;;;;;;;;;;5068744;28;20119;-86
2022/06/07 00:13:04;;;;;;;11.45;5.38;;;;;;;;;;5066065;28;20043;-81
2022/06/07 00:15:32;;;;;;;9.63;5.30;;;;;;;;;;5068352;28;20028;-86
2022/06/07 00:17:58;;;;;;;14.70;5.20;;;;;;;;;;5067281;28;20036;-84
2022/06/07 00:20:24;;;;;;;11.32;5.55;;;;;;;;;;5068282;28;20046;-86
2022/06/07 00:22:50;;;;;;;10.93;5.43;;;;;;;;;;5068293;28;20045;-83
2022/06/07 00:25:16;;;;;;;13.15;6.50;;;;;;;;;;5066579;28;20484;-84
2022/06/07 00:27:43;;;;;;;11.27;5.35;;;;;;;;;;5065657;28;20089;-87
2022/06/07 00:30:11;;;;;;;10.63;5.28;;;;;;;;;;5068685;28;20036;-88
2022/06/07 00:32:38;;;;;;;17.08;6.43;;;;;;;;;;5068710;28;20045;-83
2022/06/07 00:35:04;;;;;;;11.23;5.38;;;;;;;;;;5068363;28;20047;-84
2022/06/07 00:37:30;;;;;;;10.82;6.03;;;;;;;;;;5068034;28;20092;-85
2022/06/07 00:39:57;;;;;;;7.55;5.30;;;;;;;;;;5066682;28;20063;-83
2022/06/07 00:42:23;;;;;;;13.90;5.93;;;;;;;;;;5084943;28;20078;-87
2022/06/07 00:44:49;;;;;;;15.65;5.65;;;;;;;;;;5067644;28;20068;-87
2022/06/07 00:47:17;;;;;;;14.20;6.65;;;;;;;;;;5063818;28;20471;-85
2022/06/07 00:49:48;;;;;;;12.93;6.63;;;;;;;;;;5067979;28;20563;-85
2022/06/07 00:52:16;;;;;;;13.15;6.80;;;;;;;;;;5068307;28;20044;-81
2022/06/07 00:54:42;;;;;;;14.70;7.43;;;;;;;;;;5065713;28;20062;-83
2022/06/07 00:57:08;;;;;;;12.20;6.78;;;;;;;;;;5066985;28;20127;-84
2022/06/07 00:59:34;;;;;;;15.43;7.32;;;;;;;;;;5066124;28;20036;-82
2022/06/07 01:02:00;;;;;;;12.93;6.70;;;;;;;;;;5114027;27;20116;-89
2022/06/07 01:04:27;;;;;;;14.82;7.68;;;;;;;;;;5067125;28;20036;-85
2022/06/07 01:12:23;;;;;;;16.13;7.70;;;;;;;;;;5114749;27;20036;-85
2022/06/07 01:14:49;;;;;;;16.10;8.35;;;;;;;;;;5066428;28;20043;-86
2022/06/07 01:17:15;;;;;;;21.33;7.78;;;;;;;;;;5067556;28;20040;-83
2022/06/07 01:19:41;;;;;;;15.00;8.07;;;;;;;;;;5065501;28;20072;-80
2022/06/07 01:22:07;;;;;;;17.25;8.77;;;;;;;;;;5066404;28;20101;-85
2022/06/07 01:24:33;;;;;;;14.57;8.15;;;;;;;;;;5067479;28;20063;-85
2022/06/07 01:26:59;;;;;;;14.15;7.78;;;;;;;;;;5082578;28;20481;-83
2022/06/07 01:29:25;;;;;;;13.57;8.35;;;;;;;;;;5066426;28;20130;-82
2022/06/07 01:31:54;;;;;;;15.32;7.55;;;;;;;;;;5066825;28;20075;-88
2022/06/07 01:34:20;;;;;;;15.07;7.57;;;;;;;;;;5096542;28;20488;-83
2022/06/07 01:36:46;;;;;;;12.88;8.02;;;;;;;;;;5063989;28;20468;-84
2022/06/07 01:41:57;;;;;;;14.25;8.02;;;;;;;;;;5081479;28;20044;-87
2022/06/07 01:44:37;;;;;;;14.38;8.40;;;;;;;;;;5066644;28;20441;-80
2022/06/07 01:47:03;;;;;;;14.35;7.50;;;;;;;;;;5097205;28;20067;-83
2022/06/07 01:49:29;;;;;;;10.05;6.63;;;;;;;;;;5065771;28;20105;-84
2022/06/07 01:51:56;;;;;;;15.93;7.85;;;;;;;;;;5067213;28;20058;-80
2022/06/07 01:54:22;;;;;;;13.82;7.30;;;;;;;;;;5065289;28;20127;-83
2022/06/07 01:56:49;;;;;;;12.50;7.63;;;;;;;;;;5066138;28;20560;-85
2022/06/07 01:59:16;;;;;;;15.52;7.57;;;;;;;;;;5067191;28;20047;-86
2022/06/07 02:01:42;;;;;;;14.85;6.97;;;;;;;;;;5065492;28;20037;-88
2022/06/07 02:04:10;;;;;;;14.88;6.55;;;;;;;;;;5064609;28;20040;-86
2022/06/07 02:06:37;;;;;;;13.02;6.97;;;;;;;;;;5064691;28;20043;-87
2022/06/07 02:09:03;;;;;;;13.30;7.32;;;;;;;;;;5083322;28;20074;-84
2022/06/07 02:11:29;;;;;;;12.25;7.13;;;;;;;;;;5068891;28;20036;-87
2022/06/07 02:13:55;;;;;;;15.50;8.75;;;;;;;;;;5076034;28;20548;-83
2022/06/07 02:16:22;;;;;;;13.90;7.55;;;;;;;;;;5075965;28;20270;-85
2022/06/07 02:18:48;;;;;;;13.90;7.72;;;;;;;;;;5076013;28;20241;-82
2022/06/07 02:21:15;;;;;;;13.13;7.65;;;;;;;;;;5092562;28;20055;-86
2022/06/07 02:23:41;;;;;;;12.13;6.80;;;;;;;;;;5076232;28;20139;-83
2022/06/07 02:26:18;;;;;;;11.88;7.80;;;;;;;;;;5075977;28;20051;-83
2022/06/07 02:28:48;;;;;;;13.48;7.13;;;;;;;;;;5075421;28;20075;-83
2022/06/07 02:31:14;;;;;;;14.70;7.97;;;;;;;;;;5074227;28;20048;-84
2022/06/07 02:33:41;;;;;;;12.38;7.75;;;;;;;;;;5075480;28;20055;-84
2022/06/07 02:36:07;;;;;;;13.50;7.20;;;;;;;;;;5092326;28;20040;-83
2022/06/07 02:38:34;;;;;;;12.23;7.50;;;;;;;;;;5075415;28;20443;-83
2022/06/07 02:41:01;;;;;;;13.50;7.70;;;;;;;;;;5075325;28;20487;-85
2022/06/07 02:43:27;;;;;;;13.07;7.00;;;;;;;;;;5075024;28;20101;-84
2022/06/07 02:45:53;;;;;;;14.30;7.22;;;;;;;;;;5075343;28;20040;-82
2022/06/07 02:48:19;;;;;;;12.50;7.50;;;;;;;;;;5092386;28;20483;-79
2022/06/07 02:50:45;;;;;;;13.50;7.72;;;;;;;;;;5075119;28;20043;-83
2022/06/07 02:53:13;;;;;;;14.50;7.47;;;;;;;;;;5074977;28;20067;-84
2022/06/07 02:55:39;;;;;;;14.98;8.48;;;;;;;;;;5091760;28;20452;-81
2022/06/07 02:58:05;;;;;;;13.48;7.57;;;;;;;;;;5075478;28;20040;-84
2022/06/07 03:00:31;;;;;;;14.90;7.82;;;;;;;;;;5075044;28;20055;-83
2022/06/07 03:02:58;;;;;;;16.10;7.80;;;;;;;;;;5075312;28;20127;-82
2022/06/07 03:05:24;;;;;;;13.13;7.90;;;;;;;;;;5074828;28;20040;-83
2022/06/07 03:07:53;;;;;;;12.65;7.07;;;;;;;;;;5075234;28;20048;-81
2022/06/07 03:10:19;;;;;;;14.73;7.47;;;;;;;;;;5074789;28;20048;-82
2022/06/07 03:12:45;;;;;;;16.75;8.60;;;;;;;;;;5092342;28;20042;-82
2022/06/07 03:15:12;;;;;;;12.57;6.93;;;;;;;;;;5075000;28;20047;-83
2022/06/07 03:17:40;;;;;;;14.38;7.55;;;;;;;;;;5075174;28;20077;-82
2022/06/07 03:20:07;;;;;;;14.95;7.57;;;;;;;;;;5074962;28;20043;-83
2022/06/07 03:22:34;;;;;;;15.05;7.93;;;;;;;;;;5074981;28;20040;-83
2022/06/07 03:25:05;;;;;;;15.48;7.28;;;;;;;;;;5091856;28;20113;-82
2022/06/07 03:27:32;;;;;;;13.43;7.05;;;;;;;;;;5091633;28;20051;-83
2022/06/07 03:29:59;;;;;;;15.10;8.05;;;;;;;;;;5074906;28;20044;-81
2022/06/07 03:32:25;;;;;;;16.52;8.23;;;;;;;;;;5074748;28;20051;-82
2022/06/07 03:34:51;;;;;;;15.00;7.80;;;;;;;;;;5074997;28;20036;-84
2022/06/07 03:37:17;;;;;;;15.80;8.00;;;;;;;;;;5074807;28;20071;-87
2022/06/07 03:39:43;;;;;;;16.85;8.10;;;;;;;;;;5074702;28;20059;-82
2022/06/07 03:42:10;;;;;;;15.70;7.70;;;;;;;;;;5091397;28;20093;-85
2022/06/07 03:44:36;;;;;;;16.35;7.32;;;;;;;;;;5074539;28;20036;-81
2022/06/07 03:47:02;;;;;;;14.77;8.02;;;;;;;;;;5074670;28;20032;-83
2022/06/07 03:49:28;;;;;;;16.50;8.68;;;;;;;;;;5074701;28;20036;-83
2022/06/07 03:51:54;;;;;;;15.77;8.00;;;;;;;;;;5075521;28;20051;-82
2022/06/07 03:54:20;;;;;;;16.00;8.05;;;;;;;;;;5075754;28;20067;-83
2022/06/07 03:56:46;;;;;;;14.05;7.57;;;;;;;;;;5075716;28;20062;-80
2022/06/07 03:59:12;;;;;;;15.88;7.32;;;;;;;;;;5092318;28;20044;-83
2022/06/07 04:01:38;;;;;;;13.52;7.25;;;;;;;;;;5075646;28;20039;-83
2022/06/07 04:04:05;;;;;;;13.38;7.80;;;;;;;;;;5075389;28;20040;-83
2022/06/07 04:06:33;;;;;;;15.65;7.72;;;;;;;;;;5074054;28;20127;-80
2022/06/07 04:08:59;;;;;;;14.07;7.60;;;;;;;;;;5074127;28;20039;-83
2022/06/07 04:11:26;;;;;;;17.20;7.70;;;;;;;;;;5074413;28;20045;-88
2022/06/07 04:13:53;;;;;;;17.15;6.97;;;;;;;;;;5074391;28;20123;-84
2022/06/07 04:16:21;;;;;;;15.65;6.97;;;;;;;;;;5074234;28;20036;-83
2022/06/07 04:18:48;;;;;;;16.60;7.45;;;;;;;;;;5074260;28;20036;-84
2022/06/07 04:21:15;;;;;;;13.25;7.28;;;;;;;;;;5074313;28;20122;-81
2022/06/07 04:23:41;;;;;;;16.02;8.15;;;;;;;;;;5089790;28;20415;-83
2022/06/07 04:26:15;;;;;;;12.60;7.32;;;;;;;;;;5070927;28;20044;-83
2022/06/07 04:28:41;;;;;;;15.80;8.48;;;;;;;;;;5070352;28;20458;-86
2022/06/07 04:31:12;;;;;;;16.15;7.70;;;;;;;;;;5070484;28;20040;-82
2022/06/07 04:33:38;;;;;;;15.80;9.23;;;;;;;;;;5070699;28;20036;-85
2022/06/07 04:36:10;;;;;;;15.25;8.50;;;;;;;;;;5071233;28;20106;-82
2022/06/07 04:38:36;;;;;;;14.68;7.38;;;;;;;;;;5070852;28;20047;-83
2022/06/07 04:41:07;;;;;;;15.45;8.95;;;;;;;;;;5086900;28;20056;-85
2022/06/07 04:43:33;;;;;;;18.08;8.27;;;;;;;;;;5070905;28;20044;-80
2022/06/07 04:46:06;;;;;;;15.55;7.28;;;;;;;;;;5069882;28;20047;-82
2022/06/07 04:48:32;;;;;;;16.95;8.00;;;;;;;;;;5060898;28;20453;-84
2022/06/07 04:51:02;;;;;;;15.95;8.25;;;;;;;;;;5061402;28;20072;-84
2022/06/07 04:53:28;;;;;;;16.83;8.32;;;;;;;;;;5091179;28;20048;-82
2022/06/07 04:55:54;;;;;;;17.55;8.60;;;;;;;;;;5062923;28;20492;-81
2022/06/07 04:58:20;;;;;;;17.50;8.93;;;;;;;;;;5081492;28;20036;-84
2022/06/07 05:00:46;;;;;;;16.60;7.82;;;;;;;;;;5060137;28;20082;-85
2022/06/07 05:03:12;;;;;;;18.92;8.65;;;;;;;;;;5063254;28;20507;-83
2022/06/07 05:05:38;;;;;;;17.48;8.77;;;;;;;;;;5064348;28;20044;-85
2022/06/07 05:08:04;;;;;;;14.88;7.55;;;;;;;;;;5062161;28;20044;-83
2022/06/07 05:10:30;;;;;;;18.95;8.95;;;;;;;;;;5063055;28;20036;-82
2022/06/07 05:12:56;;;;;;;18.85;7.25;;;;;;;;;;5080574;28;20400;-85
2022/06/07 05:15:22;;;;;;;18.50;8.90;;;;;;;;;;5062066;28;20040;-81
2022/06/07 05:17:48;;;;;;;14.20;8.55;;;;;;;;;;5062173;28;20375;-83
2022/06/07 05:20:14;;;;;;;14.77;8.05;;;;;;;;;;5062362;28;20058;-81
2022/06/07 05:22:40;;;;;;;15.73;8.18;;;;;;;;;;5064131;28;20119;-82
2022/06/07 05:25:06;;;;;;;16.50;8.70;;;;;;;;;;5065427;28;20039;-83
2022/06/07 05:27:36;;;;;;;16.27;8.82;;;;;;;;;;5062622;28;20032;-79
2022/06/07 05:30:02;;;;;;;15.98;8.13;;;;;;;;;;5066866;28;20036;-84
2022/06/07 05:32:28;;;;;;;16.40;9.43;;;;;;;;;;5067361;28;20032;-84
2022/06/07 05:34:54;;;;;;;16.83;9.02;;;;;;;;;;5067366;28;20040;-80
2022/06/07 05:37:20;;;;;;;16.15;9.13;;;;;;;;;;5067162;28;20063;-81
2022/06/07 05:39:47;;;;;;;16.00;8.48;;;;;;;;;;5083725;28;20131;-84
2022/06/07 05:42:14;;;;;;;18.65;8.27;;;;;;;;;;5066380;28;20065;-81
2022/06/07 05:44:40;;;;;;;18.48;9.02;;;;;;;;;;5065051;28;20040;-81
2022/06/07 05:47:06;;;;;;;21.58;8.63;;;;;;;;;;5082303;28;20039;-80
2022/06/07 05:49:33;;;;;;;17.48;9.57;;;;;;;;;;5094328;28;20040;-82
2022/06/07 05:52:01;;;;;;;16.42;9.15;;;;;;;;;;5066129;28;20563;-79
2022/06/07 05:54:28;;;;;;;14.13;8.55;;;;;;;;;;5069249;28;20035;-83
2022/06/07 05:56:54;;;;;;;16.50;9.52;;;;;;;;;;5077322;28;20488;-86
2022/06/07 05:59:20;;;;;;;13.98;7.85;;;;;;;;;;5077389;28;20040;-83
2022/06/07 06:01:46;;;;;;;14.45;7.35;;;;;;;;;;5075833;28;20048;-80
2022/06/07 06:04:13;;;;;;;11.88;7.20;;;;;;;;;;5075883;28;20054;-87
2022/06/07 06:06:39;;;;;;;11.52;5.75;;;;;;;;;;5075750;28;20043;-83
2022/06/07 06:11:50;;;;;;;8.13;4.90;;;;;;;;;;5092717;28;20043;-83
2022/06/07 06:14:17;;;;;;;8.25;3.92;;;;;;;;;;5075593;28;20036;-80
2022/06/07 06:16:43;;;;;;;10.20;4.68;;;;;;;;;;5075362;28;20473;-81
2022/06/07 06:19:09;;;;;;;5.03;3.72;;;;;;;;;;5092604;28;20036;-83
2022/06/07 06:21:40;;;;;;;5.22;3.10;;;;;;;;;;5075318;28;20054;-81
2022/06/07 06:24:06;;;;;;;6.63;3.53;;;;;;;;;;5075655;28;20079;-79
2022/06/07 06:26:32;;;;;;;6.43;4.35;;;;;;;;;;5075294;28;20067;-83
2022/06/07 06:28:58;;;;;;;6.55;3.40;;;;;;;;;;5092542;28;20040;-83
2022/06/07 06:31:25;;;;;;;5.78;3.42;;;;;;;;;;5075400;28;20492;-81
2022/06/07 06:33:53;;;;;;;6.50;3.67;;;;;;;;;;5091852;28;20032;-87
2022/06/07 06:36:24;;;;;;;7.70;3.35;;;;;;;;;;5075291;28;20088;-83
2022/06/07 06:38:50;;;;;;;;;;;;;;;;;;5092087;28;20036;-80
2022/06/07 06:41:17;;;;;;;6.50;4.13;;;;;;;;;;5108567;28;20323;-81
2022/06/07 06:43:44;;;;;;;7.22;4.18;;;;;;;;;;5075089;28;20696;-83
2022/06/07 06:46:13;;;;;;;5.90;4.25;;;;;;;;;;5075013;28;20047;-81
2022/06/07 06:48:39;;;;;;;5.30;3.88;;;;;;;;;;5075159;28;20089;-81
2022/06/07 06:51:06;;;;;;;7.18;3.90;;;;;;;;;;5074699;28;20047;-82
2022/06/07 06:53:33;;;;;;;9.57;4.07;;;;;;;;;;5085011;28;20040;-78
2022/06/07 06:55:59;;;;;;;12.73;4.63;;;;;;;;;;5064580;28;20439;-81
2022/06/07 06:58:25;;;;;;;6.50;4.20;;;;;;;;;;5079958;28;20032;-79
2022/06/07 07:01:06;;;;;;;7.35;3.80;;;;;;;;;;5063078;28;20090;-80
2022/06/07 07:03:33;;;;;;;12.05;4.15;;;;;;;;;;5094777;28;20043;-86
2022/06/07 07:06:00;;;;;;;10.20;4.90;;;;;;;;;;5064205;28;20070;-85
2022/06/07 07:08:26;;;;;;;10.73;4.75;;;;;;;;;;5065014;28;20047;-83
2022/06/07 07:11:03;;;;;;;8.57;4.05;;;;;;;;;;5063283;28;20052;-85
2022/06/07 07:13:30;;;;;;;9.38;4.53;;;;;;;;;;5062700;28;20058;-83
2022/06/07 07:15:56;;;;;;;5.80;3.97;;;;;;;;;;5064102;28;20082;-84
2022/06/07 07:18:22;;;;;;;9.40;4.43;;;;;;;;;;5064336;28;20062;-82
2022/06/07 07:20:48;;;;;;;6.95;4.07;;;;;;;;;;5063344;28;20105;-82
2022/06/07 07:23:14;;;;;;;7.95;4.10;;;;;;;;;;5064532;28;20043;-84
2022/06/07 07:25:40;;;;;;;7.28;4.32;;;;;;;;;;5063999;28;20397;-82
2022/06/07 07:28:06;;;;;;;9.90;4.10;;;;;;;;;;5062582;28;20032;-82
2022/06/07 07:30:32;;;;;;;9.32;4.72;;;;;;;;;;5065509;28;20492;-86
2022/06/07 07:32:58;;;;;;;8.32;4.38;;;;;;;;;;5063848;28;20039;-85
2022/06/07 07:35:25;;;;;;;8.70;4.53;;;;;;;;;;5064712;28;20040;-81
2022/06/07 07:37:51;;;;;;;8.60;4.15;;;;;;;;;;5081653;28;20035;-83
2022/06/07 07:40:17;;;;;;;5.82;3.90;;;;;;;;;;5063397;28;20055;-83
2022/06/07 07:42:43;;;;;;;6.25;3.92;;;;;;;;;;5062898;28;20051;-82
2022/06/07 07:45:10;;;;;;;7.88;3.80;;;;;;;;;;5065139;28;20400;-82
2022/06/07 07:47:36;;;;;;;7.32;3.63;;;;;;;;;;5080740;28;20079;-82
2022/06/07 07:50:02;;;;;;;9.20;2.95;;;;;;;;;;5064050;28;20068;-83
2022/06/07 07:52:28;;;;;;;6.65;3.28;;;;;;;;;;5062398;28;20048;-84
2022/06/07 07:54:54;;;;;;;10.68;3.35;;;;;;;;;;5064246;28;20403;-83
2022/06/07 07:57:20;;;;;;;9.70;3.20;;;;;;;;;;5080939;28;20040;-87
2022/06/07 07:59:46;;;;;;;4.93;2.47;;;;;;;;;;5062442;28;20044;-85
2022/06/07 08:02:20;;;;;;;4.38;2.45;;;;;;;;;;5065173;28;20032;-84
2022/06/07 08:04:46;;;;;;;6.40;2.42;;;;;;;;;;5062142;28;20040;-83
2022/06/07 08:07:12;;;;;;;6.78;2.83;;;;;;;;;;5054059;28;20040;-83
2022/06/07 08:09:39;;;;;;;4.28;2.85;;;;;;;;;;5070648;28;20032;-82
2022/06/07 08:12:06;;;;;;;5.68;2.40;;;;;;;;;;5053981;28;20040;-80
2022/06/07 08:14:33;;;;;;;11.10;3.22;;;;;;;;;;5054023;28;20037;-84
2022/06/07 08:17:00;;;;;;;6.43;3.67;;;;;;;;;;5054002;28;20499;-80
2022/06/07 08:19:26;;;;;;;6.07;3.15;;;;;;;;;;5053517;28;20037;-84
2022/06/07 08:21:52;;;;;;;11.88;3.53;;;;;;;;;;5054996;28;20043;-85
2022/06/07 08:24:18;;;;;;;5.97;4.00;;;;;;;;;;5054944;28;20041;-84
2022/06/07 08:26:46;;;;;;;5.75;3.53;;;;;;;;;;5055228;28;20060;-84
2022/06/07 08:29:12;;;;;;;4.70;3.30;;;;;;;;;;5056439;28;20050;-82
2022/06/07 08:31:39;;;;;;;7.78;3.30;;;;;;;;;;5075558;28;20087;-85
2022/06/07 08:39:36;;;;;;;5.78;2.67;;;;;;;;;;5074836;28;20420;-82
2022/06/07 08:42:02;;;;;;;7.47;3.22;;;;;;;;;;5058749;28;20446;-81
2022/06/07 08:44:37;;;;;;;5.25;2.83;;;;;;;;;;5058869;28;20080;-86
2022/06/07 08:47:06;;;;;;;6.90;3.40;;;;;;;;;;5075204;28;20046;-84
2022/06/07 08:49:32;;;;;;;5.65;3.10;;;;;;;;;;5058423;28;20074;-86
2022/06/07 08:52:16;;;;;;;7.97;3.05;;;;;;;;;;5058291;28;20708;-84
2022/06/07 08:54:42;;;;;;;4.20;3.15;;;;;;;;;;5058278;28;20047;-83
2022/06/07 08:57:22;;;;;;;4.85;3.00;;;;;;;;;;5057437;28;20044;-83
2022/06/07 08:59:54;;;;;;;6.03;3.53;;;;;;;;;;5053513;28;20036;-84
2022/06/07 09:02:31;;;;;;;7.40;4.07;;;;;;;;;;5053622;28;20051;-82
2022/06/07 09:04:58;;;;;;;11.55;3.88;;;;;;;;;;5055798;28;20480;-83
2022/06/07 09:07:25;;;;;;;6.00;3.33;;;;;;;;;;5040516;28;20101;-82
2022/06/07 09:12:54;;;;;;;9.55;3.63;;;;;;;;;;5081832;28;20531;-86
2022/06/07 09:15:21;;;;;;;8.10;3.63;;;;;;;;;;5100744;28;20502;-84
2022/06/07 09:17:48;;;;;;;4.82;2.47;;;;;;;;;;5082228;28;20028;-85
2022/06/07 09:20:17;;;;;;;4.93;2.38;;;;;;;;;;5066149;28;20364;-83
2022/06/07 09:23:12;;;;;;;3.17;2.03;;;;;;;;;;5083927;28;20040;-84
2022/06/07 09:25:40;;;;;;;5.13;2.00;;;;;;;;;;5093999;28;20060;-81
2022/06/07 09:28:11;;;;;;;3.90;2.58;;;;;;;;;;5096048;28;20072;-80
2022/06/07 09:30:39;;;;;;;4.18;2.28;;;;;;;;;;5064559;28;20392;-83
2022/06/07 09:33:10;;;;;;;4.38;2.50;;;;;;;;;;5081324;28;20374;-82
2022/06/07 09:35:36;;;;;;;4.10;2.80;;;;;;;;;;5082049;28;20491;-84
2022/06/07 09:38:10;;;;;;;4.60;2.40;;;;;;;;;;5067273;28;20125;-83
2022/06/07 09:40:38;;;;;;;5.30;2.50;;;;;;;;;;5064317;28;20056;-81
2022/06/07 09:43:06;;;;;;;5.03;2.35;;;;;;;;;;5066479;28;20040;-85
2022/06/07 09:45:37;;;;;;;3.90;2.53;;;;;;;;;;5065416;28;20033;-82
2022/06/07 09:48:26;;;;;;;3.95;2.30;;;;;;;;;;5064814;28;20480;-85
2022/06/07 09:50:57;;;;;;;9.43;2.60;;;;;;;;;;5092824;28;20043;-82
2022/06/07 09:53:23;;;;;;;4.18;2.63;;;;;;;;;;5066972;28;20119;-82
2022/06/07 09:56:05;;;;;;;5.03;2.22;;;;;;;;;;5065542;28;20032;-82
2022/06/07 09:58:41;;;;;;;5.68;2.00;;;;;;;;;;5097043;28;20503;-84
2022/06/07 10:01:19;;;;;;;4.50;1.85;;;;;;;;;;5066474;28;20140;-81
2022/06/07 10:03:55;;;;;;;1.60;1.20;;;;;;;;;;5066657;28;20044;-85
2022/06/07 10:06:33;;;;;;;3.55;1.27;;;;;;;;;;5066127;28;20111;-80
2022/06/07 10:09:08;;;;;;;4.47;1.20;;;;;;;;;;5066211;28;20504;-83
2022/06/07 10:11:54;;;;;;;2.72;1.25;;;;;;;;;;5097422;28;20075;-83
2022/06/07 10:14:36;;;;;;;4.50;1.15;;;;;;;;;;5088276;28;20088;-82
2022/06/07 10:17:06;;;;;;;3.55;1.33;;;;;;;;;;5066035;28;20032;-81
2022/06/07 10:19:51;;;;;;;3.60;1.42;;;;;;;;;;5082030;28;20040;-79
2022/06/07 10:22:27;;;;;;;4.60;1.27;;;;;;;;;;5095825;28;20040;-79
2022/06/07 10:24:59;;;;;;;1.73;1.42;;;;;;;;;;5080435;28;20036;-81
2022/06/07 10:27:44;;;;;;;2.80;1.27;;;;;;;;;;5063177;28;20094;-84
2022/06/07 10:30:10;;;;;;;3.95;1.35;;;;;;;;;;5059101;28;20044;-84
2022/06/07 10:32:36;;;;;;;6.35;1.70;;;;;;;;;;5063710;28;20071;-84
2022/06/07 10:35:07;;;;;;;7.47;1.83;;;;;;;;;;5063536;28;20036;-81
2022/06/07 10:37:53;;;;;;;5.68;1.60;;;;;;;;;;5064320;28;20039;-82
2022/06/07 10:40:21;;;;;;;4.20;1.67;;;;;;;;;;5090199;28;20139;-83
2022/06/07 10:42:54;;;;;;;4.95;1.85;;;;;;;;;;5063078;28;20447;-84
2022/06/07 10:45:22;;;;;;;3.30;1.45;;;;;;;;;;5065413;28;20071;-81
2022/06/07 10:47:52;;;;;;;2.92;1.83;;;;;;;;;;5064340;28;20070;-82
2022/06/07 10:50:24;;;;;;;2.10;1.50;;;;;;;;;;5063507;28;20044;-82
2022/06/07 10:52:57;;;;;;;4.15;1.35;;;;;;;;;;5095437;28;20279;-83
2022/06/07 10:55:26;;;;;;;2.95;1.00;;;;;;;;;;5063538;28;20039;-83
2022/06/07 10:58:04;;;;;;;2.78;1.35;;;;;;;;;;5064226;28;20039;-85
2022/06/07 11:00:50;;;;;;;3.83;1.45;;;;;;;;;;5093205;28;20047;-83
2022/06/07 11:03:16;;;;;;;3.30;1.45;;;;;;;;;;5096618;28;20047;-81
2022/06/07 11:11:24;;;;;;;3.42;1.35;;;;;;;;;;5114421;27;20044;-82
2022/06/07 11:13:50;;;;;;;4.65;1.30;;;;;;;;;;5065508;28;20078;-81
2022/06/07 11:16:16;;;;;;;4.57;1.63;;;;;;;;;;5065119;28;20083;-84
2022/06/07 11:18:42;;;;;;;4.28;1.30;;;;;;;;;;5064458;28;20033;-82
2022/06/07 11:21:08;;;;;;;5.45;1.45;;;;;;;;;;5062049;28;20077;-84
2022/06/07 11:23:38;;;;;;;2.65;1.23;;;;;;;;;;5071202;28;20044;-84
2022/06/07 11:26:06;;;;;;;5.43;1.45;;;;;;;;;;5071180;28;20059;-82
2022/06/07 11:28:35;;;;;;;2.03;1.52;;;;;;;;;;5054425;28;20046;-83
2022/06/07 11:31:19;;;;;;;2.33;1.27;;;;;;;;;;5066854;28;20166;-82
2022/06/07 11:33:52;;;;;;;5.82;1.45;;;;;;;;;;5051176;28;20078;-80
2022/06/07 11:36:23;;;;;;;2.67;1.50;;;;;;;;;;5050784;28;20131;-83
2022/06/07 11:38:56;;;;;;;4.72;1.33;;;;;;;;;;5050686;28;20124;-84
2022/06/07 11:41:37;;;;;;;4.32;1.50;;;;;;;;;;5051097;28;20044;-82
2022/06/07 11:44:22;;;;;;;3.28;1.33;;;;;;;;;;5050778;28;20051;-83
2022/06/07 11:46:48;;;;;;;2.97;1.30;;;;;;;;;;5077730;28;20134;-84
2022/06/07 11:49:23;;;;;;;4.75;1.40;;;;;;;;;;5061243;28;20201;-82
2022/06/07 11:51:58;;;;;;;3.85;1.08;;;;;;;;;;5055603;28;20102;-83
2022/06/07 11:54:33;;;;;;;5.60;1.42;;;;;;;;;;5058412;28;20567;-81
2022/06/07 11:57:17;;;;;;;3.33;1.52;;;;;;;;;;5060197;28;20040;-82
2022/06/07 11:59:45;;;;;;;3.45;1.35;;;;;;;;;;5093410;28;20044;-84
2022/06/07 12:02:14;;;;;;;2.17;1.13;;;;;;;;;;5089634;28;20037;-85
2022/06/07 12:04:43;;;;;;;5.57;2.00;;;;;;;;;;5062830;28;20044;-83
2022/06/07 12:07:15;;;;;;;2.88;1.25;;;;;;;;;;5075367;28;20037;-83
2022/06/07 12:09:47;;;;;;;3.42;1.50;;;;;;;;;;5094284;28;20039;-83
2022/06/07 12:12:25;;;;;;;5.80;1.48;;;;;;;;;;5059814;28;20524;-85
2022/06/07 12:14:52;;;;;;;5.38;1.67;;;;;;;;;;5042650;28;20511;-85
2022/06/07 12:17:20;;;;;;;4.75;1.70;;;;;;;;;;5076322;28;20033;-85
2022/06/07 12:19:47;;;;;;;5.22;1.70;;;;;;;;;;5059230;28;20545;-83
2022/06/07 12:22:15;;;;;;;3.00;1.52;;;;;;;;;;5042256;28;20375;-82
2022/06/07 12:24:45;;;;;;;5.70;1.60;;;;;;;;;;5044131;28;20456;-84
2022/06/07 12:27:14;;;;;;;4.60;2.35;;;;;;;;;;5048257;28;20041;-82
2022/06/07 12:29:43;;;;;;;7.10;2.10;;;;;;;;;;5077386;28;20105;-84
2022/06/07 12:32:15;;;;;;;4.50;1.60;;;;;;;;;;5044422;28;20040;-84
2022/06/07 12:34:41;;;;;;;3.53;1.65;;;;;;;;;;5041626;28;20040;-85
2022/06/07 12:37:11;;;;;;;3.42;1.25;;;;;;;;;;5044468;28;20037;-80
2022/06/07 12:39:42;;;;;;;3.78;1.63;;;;;;;;;;5043329;28;20452;-82
2022/06/07 12:42:14;;;;;;;4.15;2.25;;;;;;;;;;5075805;28;20040;-81
2022/06/07 12:44:42;;;;;;;4.18;1.70;;;;;;;;;;5059214;28;20052;-85
2022/06/07 12:47:20;;;;;;;4.57;1.63;;;;;;;;;;5059292;28;20044;-81
2022/06/07 12:49:46;;;;;;;5.05;1.58;;;;;;;;;;5043634;28;20041;-82
2022/06/07 12:52:14;;;;;;;4.72;2.08;;;;;;;;;;5060464;28;20052;-83
2022/06/07 12:54:40;;;;;;;2.38;1.92;;;;;;;;;;5046148;28;20036;-84
2022/06/07 12:57:15;;;;;;;5.45;1.90;;;;;;;;;;5044595;28;20045;-82
2022/06/07 13:00:03;;;;;;;7.78;1.98;;;;;;;;;;5041550;28;20045;-84
2022/06/07 13:02:37;;;;;;;4.93;1.75;;;;;;;;;;5061214;28;20090;-81
2022/06/07 13:05:06;;;;;;;3.55;1.42;;;;;;;;;;5078458;28;20589;-81
2022/06/07 13:07:42;;;;;;;7.80;1.95;;;;;;;;;;5074387;28;20047;-82
2022/06/07 13:10:11;;;;;;;5.75;1.67;;;;;;;;;;5040950;28;20037;-86
2022/06/07 13:12:42;;;;;;;4.20;1.83;;;;;;;;;;5076541;28;20551;-85
2022/06/07 13:15:19;;;;;;;9.65;2.33;;;;;;;;;;5043184;28;20500;-87
2022/06/07 13:17:56;;;;;;;5.65;1.92;;;;;;;;;;5043605;28;20037;-82
2022/06/07 13:20:28;;;;;;;6.28;2.92;;;;;;;;;;5093534;28;20055;-83
2022/06/07 13:22:54;;;;;;;2.80;1.98;;;;;;;;;;5075863;28;20170;-86
2022/06/07 13:25:20;;;;;;;4.72;1.80;;;;;;;;;;5077552;28;20052;-83
2022/06/07 13:28:09;;;;;;;3.50;1.70;;;;;;;;;;5077520;28;20048;-84
2022/06/07 13:30:40;;;;;;;2.83;1.63;;;;;;;;;;5059516;28;20052;-84
2022/06/07 13:33:07;;;;;;;3.40;1.58;;;;;;;;;;5074709;28;20089;-84
2022/06/07 13:35:41;;;;;;;2.08;1.52;;;;;;;;;;5041776;28;20047;-83
2022/06/07 13:38:20;;;;;;;3.92;1.67;;;;;;;;;;5075083;28;20547;-82
2022/06/07 13:40:46;;;;;;;5.70;1.80;;;;;;;;;;5076587;28;20084;-87
2022/06/07 13:43:13;;;;;;;4.47;1.63;;;;;;;;;;5060018;28;20051;-82
2022/06/07 13:45:49;;;;;;;4.85;2.40;;;;;;;;;;5042573;28;20041;-83
2022/06/07 13:54:13;;;;;;;6.95;1.70;;;;;;;;;;5063920;28;20040;-85
2022/06/07 13:56:39;;;;;;;3.38;2.47;;;;;;;;;;5074975;28;20040;-83
2022/06/07 13:59:05;;;;;;;5.30;1.90;;;;;;;;;;5074171;28;20499;-84
2022/06/07 14:01:36;;;;;;;3.38;1.50;;;;;;;;;;5074633;28;20044;-83
2022/06/07 14:04:11;;;;;;;6.05;1.63;;;;;;;;;;5075219;28;20047;-83
2022/06/07 14:06:38;;;;;;;5.80;2.05;;;;;;;;;;5073713;28;20048;-82
2022/06/07 14:09:16;;;;;;;3.28;1.77;;;;;;;;;;5042696;28;20510;-84
2022/06/07 14:11:42;;;;;;;6.68;1.90;;;;;;;;;;5073296;28;20103;-82
2022/06/07 14:14:08;;;;;;;1.73;1.58;;;;;;;;;;5043377;28;20040;-86
2022/06/07 14:16:43;;;;;;;4.00;1.70;;;;;;;;;;5038394;28;20559;-81
2022/06/07 14:19:12;;;;;;;2.15;1.70;;;;;;;;;;5053175;28;20048;-79
2022/06/07 14:21:38;;;;;;;5.53;2.03;;;;;;;;;;5054355;28;20040;-82
2022/06/07 14:24:06;;;;;;;3.63;1.60;;;;;;;;;;5042153;28;20041;-85
2022/06/07 14:26:32;;;;;;;3.70;1.83;;;;;;;;;;5074080;28;20098;-82
2022/06/07 14:28:58;;;;;;;5.80;2.40;;;;;;;;;;5075063;28;20468;-81
2022/06/07 14:31:25;;;;;;;3.00;1.90;;;;;;;;;;5056161;28;20106;-82
2022/06/07 14:33:52;;;;;;;3.60;1.98;;;;;;;;;;5059171;28;20124;-84
2022/06/07 14:36:18;;;;;;;4.55;1.95;;;;;;;;;;5040555;28;20043;-85
2022/06/07 14:38:47;;;;;;;4.32;2.22;;;;;;;;;;5057170;28;20040;-84
2022/06/07 14:41:13;;;;;;;2.70;1.95;;;;;;;;;;5075068;28;20060;-82
2022/06/07 14:43:39;;;;;;;3.85;2.03;;;;;;;;;;5039363;28;20148;-84
2022/06/07 14:46:35;;;;;;;7.13;2.20;;;;;;;;;;5039454;28;20040;-81
2022/06/07 14:49:10;;;;;;;6.25;2.85;;;;;;;;;;5038609;28;20048;-85
2022/06/07 14:51:38;;;;;;;6.38;2.70;;;;;;;;;;5073885;28;20550;-84
2022/06/07 14:54:05;;;;;;;6.30;2.33;;;;;;;;;;5073593;28;20129;-82
2022/06/07 14:56:33;;;;;;;5.70;2.45;;;;;;;;;;5041719;28;20037;-84
2022/06/07 14:58:59;;;;;;;6.05;2.55;;;;;;;;;;5070781;28;20032;-84
2022/06/07 15:01:29;;;;;;;5.65;2.70;;;;;;;;;;5088944;28;20127;-83
2022/06/07 15:03:55;;;;;;;3.58;2.13;;;;;;;;;;5056086;28;20037;-85
2022/06/07 15:06:25;;;;;;;3.60;2.15;;;;;;;;;;5051494;28;20078;-82
2022/06/07 15:08:54;;;;;;;4.00;2.08;;;;;;;;;;5039496;28;20071;-82
2022/06/07 15:11:34;;;;;;;5.82;2.25;;;;;;;;;;5056915;28;20081;-83
2022/06/07 15:14:01;;;;;;;4.43;2.10;;;;;;;;;;5073810;28;20047;-86
2022/06/07 15:16:34;;;;;;;5.47;2.15;;;;;;;;;;5071377;28;20033;-85
2022/06/07 15:19:01;;;;;;;3.13;2.67;;;;;;;;;;5057674;28;20037;-83